createdAt,value
2023-08-20T00:01:24.409Z,19.85
2023-08-20T00:03:52.529Z,19.94
2023-08-20T00:06:19.783Z,19.99
2023-08-20T00:08:46.457Z,19.94
2023-08-20T00:11:14.123Z,19.95
2023-08-20T00:13:40.862Z,20.00
2023-08-20T00:16:07.975Z,20.04
2023-08-20T00:18:36.720Z,20.33
2023-08-20T00:21:04.801Z,20.37
2023-08-20T00:23:31.742Z,20.43
2023-08-20T00:25:58.382Z,20.30
2023-08-20T00:28:24.750Z,19.97
2023-08-20T00:30:51.117Z,20.02
2023-08-20T00:33:18.154Z,19.92
2023-08-20T00:35:44.539Z,19.99
2023-08-20T00:38:11.035Z,19.95
2023-08-20T00:40:37.415Z,20.17
2023-08-20T00:43:03.932Z,20.22
2023-08-20T00:45:31.326Z,20.11
2023-08-20T00:47:57.890Z,20.22
2023-08-20T00:50:24.300Z,20.25
2023-08-20T00:52:50.819Z,20.30
2023-08-20T00:55:17.375Z,20.27
2023-08-20T00:57:43.811Z,20.32
2023-08-20T01:00:11.078Z,20.38
2023-08-20T01:02:38.767Z,20.53
2023-08-20T01:05:07.760Z,20.52
2023-08-20T01:08:09.224Z,20.35
2023-08-20T01:10:54.329Z,20.30
2023-08-20T01:13:20.681Z,20.01
2023-08-20T01:15:47.088Z,19.88
2023-08-20T01:18:13.535Z,19.91
2023-08-20T01:20:48.108Z,19.80
2023-08-20T01:23:17.200Z,19.88
2023-08-20T01:26:00.969Z,19.82
2023-08-20T01:28:29.988Z,19.81
2023-08-20T01:30:58.257Z,19.82
2023-08-20T01:33:25.456Z,19.84
2023-08-20T01:35:53.153Z,19.83
2023-08-20T01:38:19.615Z,19.72
2023-08-20T01:40:46.240Z,19.56
2023-08-20T01:43:12.619Z,19.54
2023-08-20T01:45:39.021Z,19.54
2023-08-20T01:48:05.846Z,19.47
2023-08-20T01:50:33.109Z,19.42
2023-08-20T01:52:59.470Z,19.37
2023-08-20T01:55:25.849Z,19.31
2023-08-20T01:57:52.338Z,19.27
2023-08-20T02:00:18.756Z,19.27
2023-08-20T02:05:33.115Z,19.12
2023-08-20T02:07:59.581Z,19.09
2023-08-20T02:10:25.963Z,19.06
2023-08-20T02:12:52.317Z,18.96
2023-08-20T02:15:18.700Z,18.95
2023-08-20T02:17:45.060Z,18.88
2023-08-20T02:20:11.978Z,18.76
2023-08-20T02:22:38.401Z,18.58
2023-08-20T02:25:05.196Z,18.59
2023-08-20T02:27:31.717Z,18.55
2023-08-20T02:29:58.129Z,18.38
2023-08-20T02:32:24.617Z,18.25
2023-08-20T02:34:52.286Z,18.40
2023-08-20T02:37:18.753Z,18.45
2023-08-20T02:39:45.274Z,18.53
2023-08-20T02:42:11.671Z,18.61
2023-08-20T02:44:38.013Z,18.78
2023-08-20T02:47:04.481Z,18.81
2023-08-20T02:49:30.812Z,18.80
2023-08-20T02:51:57.177Z,18.62
2023-08-20T02:54:23.508Z,18.70
2023-08-20T02:56:49.868Z,18.48
2023-08-20T02:59:16.199Z,18.51
2023-08-20T03:01:42.585Z,18.43
2023-08-20T03:04:08.974Z,18.45
2023-08-20T03:06:35.323Z,18.41
2023-08-20T03:09:01.680Z,18.35
2023-08-20T03:11:28.025Z,18.32
2023-08-20T03:13:54.386Z,18.29
2023-08-20T03:16:20.770Z,18.20
2023-08-20T03:18:47.181Z,18.29
2023-08-20T03:21:13.530Z,18.49
2023-08-20T03:23:39.928Z,18.70
2023-08-20T03:26:06.283Z,18.84
2023-08-20T03:28:32.641Z,18.87
2023-08-20T03:31:01.927Z,18.87
2023-08-20T03:33:28.451Z,18.86
2023-08-20T03:35:57.294Z,18.93
2023-08-20T03:38:25.125Z,18.90
2023-08-20T03:40:51.485Z,18.99
2023-08-20T03:43:17.827Z,19.06
2023-08-20T03:45:44.215Z,18.93
2023-08-20T03:48:10.612Z,18.88
2023-08-20T03:50:37.645Z,18.82
2023-08-20T03:53:04.179Z,18.59
2023-08-20T03:55:30.581Z,18.48
2023-08-20T03:57:56.955Z,18.21
2023-08-20T04:00:23.307Z,18.29
2023-08-20T04:02:49.751Z,18.40
2023-08-20T04:05:16.248Z,18.44
2023-08-20T04:07:42.672Z,18.53
2023-08-20T04:10:09.416Z,18.69
2023-08-20T04:12:35.787Z,18.73
2023-08-20T04:15:02.210Z,18.73
2023-08-20T04:17:28.770Z,18.71
2023-08-20T04:19:55.137Z,18.63
2023-08-20T04:22:21.486Z,18.59
2023-08-20T04:24:47.942Z,18.53
2023-08-20T04:27:14.288Z,18.67
2023-08-20T04:29:40.650Z,18.69
2023-08-20T04:32:07.007Z,18.54
2023-08-20T04:34:33.415Z,18.34
2023-08-20T04:36:59.858Z,18.34
2023-08-20T04:39:26.249Z,18.33
2023-08-20T04:41:52.712Z,18.29
2023-08-20T04:44:19.114Z,17.89
2023-08-20T04:46:45.515Z,18.01
2023-08-20T04:49:11.914Z,18.33
2023-08-20T04:51:38.272Z,18.52
2023-08-20T04:54:04.988Z,18.73
2023-08-20T04:56:31.395Z,18.74
2023-08-20T04:58:57.897Z,18.63
2023-08-20T05:01:24.337Z,18.79
2023-08-20T05:03:50.748Z,18.94
2023-08-20T05:06:17.110Z,18.93
2023-08-20T05:08:43.911Z,18.87
2023-08-20T05:11:10.313Z,18.86
2023-08-20T05:13:36.679Z,18.86
2023-08-20T05:16:03.162Z,18.80
2023-08-20T05:18:29.553Z,18.88
2023-08-20T05:20:55.899Z,19.01
2023-08-20T05:23:22.257Z,18.94
2023-08-20T05:25:48.622Z,18.94
2023-08-20T05:28:15.012Z,19.00
2023-08-20T05:30:41.367Z,19.07
2023-08-20T05:33:07.848Z,19.13
2023-08-20T05:35:34.210Z,19.10
2023-08-20T05:38:00.594Z,19.20
2023-08-20T05:40:26.966Z,19.27
2023-08-20T05:42:53.313Z,19.30
2023-08-20T05:45:19.686Z,19.42
2023-08-20T05:47:46.108Z,19.51
2023-08-20T05:50:12.480Z,19.51
2023-08-20T05:52:39.040Z,19.47
2023-08-20T05:55:05.915Z,19.62
2023-08-20T05:57:32.363Z,19.99
2023-08-20T05:59:58.720Z,20.41
2023-08-20T06:02:25.140Z,20.82
2023-08-20T06:04:51.554Z,21.13
2023-08-20T06:07:17.941Z,21.42
2023-08-20T06:09:44.318Z,21.55
2023-08-20T06:12:10.672Z,21.65
2023-08-20T06:14:37.055Z,21.71
2023-08-20T06:17:03.471Z,21.87
2023-08-20T06:19:29.814Z,22.28
2023-08-20T06:21:56.189Z,22.37
2023-08-20T06:24:22.572Z,22.39
2023-08-20T06:26:48.923Z,22.29
2023-08-20T06:29:15.370Z,22.41
2023-08-20T06:31:41.877Z,22.59
2023-08-20T06:34:08.369Z,22.69
2023-08-20T06:36:34.809Z,22.81
2023-08-20T06:39:01.171Z,22.86
2023-08-20T06:41:27.613Z,22.70
2023-08-20T06:43:54.054Z,22.77
2023-08-20T06:46:20.449Z,22.61
2023-08-20T06:48:46.885Z,22.47
2023-08-20T06:51:14.240Z,22.35
2023-08-20T06:53:40.924Z,22.35
2023-08-20T06:56:10.554Z,22.43
2023-08-20T06:58:37.049Z,22.42
2023-08-20T07:01:03.575Z,22.52
2023-08-20T07:03:29.936Z,22.66
2023-08-20T07:05:56.341Z,22.76
2023-08-20T07:08:22.692Z,22.66
2023-08-20T07:10:49.057Z,22.83
2023-08-20T07:13:15.406Z,23.02
2023-08-20T07:15:41.807Z,23.16
2023-08-20T07:18:08.248Z,22.90
2023-08-20T07:20:34.737Z,23.11
2023-08-20T07:23:02.109Z,23.14
2023-08-20T07:25:29.538Z,23.15
2023-08-20T07:27:55.918Z,23.36
2023-08-20T07:30:22.309Z,23.27
2023-08-20T07:32:48.701Z,23.45
2023-08-20T07:35:16.308Z,23.34
2023-08-20T07:37:43.464Z,23.35
2023-08-20T07:40:10.695Z,23.41
2023-08-20T07:42:37.764Z,23.64
2023-08-20T07:45:04.374Z,23.78
2023-08-20T07:47:30.900Z,23.99
2023-08-20T07:49:57.321Z,24.10
2023-08-20T07:52:23.692Z,24.16
2023-08-20T07:54:50.077Z,24.11
2023-08-20T07:57:16.462Z,24.08
2023-08-20T07:59:42.855Z,24.24
2023-08-20T08:02:09.201Z,24.28
2023-08-20T08:04:36.606Z,24.38
2023-08-20T08:07:03.514Z,24.54
2023-08-20T08:09:31.799Z,24.52
2023-08-20T08:11:59.674Z,24.45
2023-08-20T08:14:26.469Z,24.68
2023-08-20T08:16:53.153Z,24.89
2023-08-20T08:19:19.860Z,24.96
2023-08-20T08:21:46.665Z,25.11
2023-08-20T08:24:14.106Z,25.06
2023-08-20T08:26:42.200Z,25.16
2023-08-20T08:29:09.414Z,25.32
2023-08-20T08:31:36.114Z,25.46
2023-08-20T08:34:03.357Z,25.57
2023-08-20T08:36:29.860Z,25.54
2023-08-20T08:38:56.224Z,25.56
2023-08-20T08:41:23.900Z,25.55
2023-08-20T08:43:50.655Z,25.55
2023-08-20T08:46:17.534Z,25.48
2023-08-20T08:48:46.792Z,25.39
2023-08-20T08:51:14.054Z,25.44
2023-08-20T08:53:42.644Z,25.65
2023-08-20T08:56:09.014Z,25.72
2023-08-20T08:58:35.361Z,25.88
2023-08-20T09:01:01.854Z,25.83
2023-08-20T09:03:28.364Z,25.96
2023-08-20T09:05:57.449Z,26.17
2023-08-20T09:08:27.953Z,26.10
2023-08-20T09:10:55.720Z,25.99
2023-08-20T09:13:26.569Z,25.90
2023-08-20T09:15:54.229Z,26.06
2023-08-20T09:18:21.413Z,26.22
2023-08-20T09:20:51.524Z,26.39
2023-08-20T09:23:18.074Z,26.54
2023-08-20T09:25:44.488Z,26.32
2023-08-20T09:28:10.919Z,26.48
2023-08-20T09:30:38.280Z,26.68
2023-08-20T09:33:14.213Z,26.59
2023-08-20T09:35:50.262Z,26.66
2023-08-20T09:38:20.477Z,26.42
2023-08-20T09:40:50.191Z,26.68
2023-08-20T09:43:17.637Z,27.03
2023-08-20T09:45:46.288Z,27.04
2023-08-20T09:48:17.729Z,26.88
2023-08-20T09:50:44.710Z,26.82
2023-08-20T09:53:29.129Z,26.90
2023-08-20T09:56:02.271Z,27.27
2023-08-20T09:58:29.031Z,27.71
2023-08-20T10:00:55.817Z,27.33
2023-08-20T10:03:22.921Z,27.47
2023-08-20T10:05:50.982Z,27.58
2023-08-20T10:08:18.040Z,27.44
2023-08-20T10:10:45.603Z,27.28
2023-08-20T10:13:14.250Z,27.24
2023-08-20T10:15:43.958Z,27.44
2023-08-20T10:18:12.155Z,27.69
2023-08-20T10:20:40.205Z,28.44
2023-08-20T10:23:06.629Z,28.87
2023-08-20T10:25:41.879Z,28.46
2023-08-20T10:28:27.750Z,28.30
2023-08-20T10:31:11.279Z,28.49
2023-08-20T10:33:57.163Z,28.03
2023-08-20T10:36:25.182Z,28.02
2023-08-20T10:38:51.582Z,27.96
2023-08-20T10:41:26.210Z,27.65
2023-08-20T10:43:52.594Z,27.20
2023-08-20T10:46:20.368Z,27.93
2023-08-20T10:48:52.619Z,27.79
2023-08-20T10:51:26.238Z,28.17
2023-08-20T10:54:13.055Z,28.60
2023-08-20T10:56:41.055Z,28.45
2023-08-20T10:59:26.368Z,28.66
2023-08-20T11:01:58.613Z,29.05
2023-08-20T11:04:28.678Z,28.92
2023-08-20T11:06:57.652Z,29.05
2023-08-20T11:09:24.913Z,29.40
2023-08-20T11:11:52.118Z,29.41
2023-08-20T11:14:20.077Z,28.89
2023-08-20T11:16:47.695Z,28.74
2023-08-20T11:19:14.411Z,28.95
2023-08-20T11:21:42.412Z,28.83
2023-08-20T11:24:10.173Z,28.76
2023-08-20T11:26:39.333Z,28.38
2023-08-20T11:29:14.565Z,28.44
2023-08-20T11:31:41.944Z,28.19
2023-08-20T11:34:08.537Z,27.93
2023-08-20T11:36:35.824Z,28.01
2023-08-20T11:39:02.320Z,27.58
2023-08-20T11:41:28.772Z,27.12
2023-08-20T11:43:55.132Z,27.35
2023-08-20T11:46:24.113Z,27.59
2023-08-20T11:49:08.475Z,27.91
2023-08-20T11:51:39.113Z,27.31
2023-08-20T11:54:06.965Z,27.31
2023-08-20T11:56:34.824Z,27.76
2023-08-20T11:59:02.657Z,27.84
2023-08-20T12:01:32.926Z,28.00
2023-08-20T12:04:07.553Z,28.01
2023-08-20T12:06:35.042Z,28.05
2023-08-20T12:09:02.368Z,28.00
2023-08-20T12:11:29.259Z,28.10
2023-08-20T12:13:56.249Z,28.40
2023-08-20T12:16:24.016Z,28.67
2023-08-20T12:18:51.001Z,28.58
2023-08-20T12:21:17.438Z,28.43
2023-08-20T12:23:43.814Z,28.40
2023-08-20T12:26:10.148Z,28.95
2023-08-20T12:28:36.494Z,29.31
2023-08-20T12:31:02.896Z,29.42
2023-08-20T12:33:29.286Z,29.57
2023-08-20T12:35:56.530Z,29.29
2023-08-20T12:38:23.722Z,29.15
2023-08-20T12:40:50.119Z,29.28
2023-08-20T12:43:16.456Z,28.90
2023-08-20T12:45:42.808Z,28.39
2023-08-20T12:48:09.208Z,28.98
2023-08-20T12:50:35.565Z,29.16
2023-08-20T12:53:01.910Z,29.28
2023-08-20T12:55:28.253Z,29.81
2023-08-20T12:57:59.293Z,30.02
2023-08-20T13:00:26.940Z,29.75
2023-08-20T13:02:54.956Z,29.30
2023-08-20T13:05:23.000Z,29.50
2023-08-20T13:07:49.664Z,29.22
2023-08-20T13:10:16.526Z,29.35
2023-08-20T13:12:47.212Z,29.23
2023-08-20T13:15:14.117Z,29.01
2023-08-20T13:17:40.839Z,28.92
2023-08-20T13:20:07.851Z,28.59
2023-08-20T13:22:34.204Z,28.50
2023-08-20T13:25:00.595Z,28.75
2023-08-20T13:27:26.971Z,28.94
2023-08-20T13:29:53.304Z,29.20
2023-08-20T13:32:19.777Z,29.35
2023-08-20T13:34:46.131Z,29.22
2023-08-20T13:37:12.520Z,28.88
2023-08-20T13:39:38.889Z,29.08
2023-08-20T13:42:05.343Z,29.26
2023-08-20T13:44:31.696Z,29.65
2023-08-20T13:46:58.102Z,29.30
2023-08-20T13:49:24.484Z,29.24
2023-08-20T13:51:50.859Z,29.32
2023-08-20T13:54:17.254Z,29.15
2023-08-20T13:56:44.186Z,29.17
2023-08-20T13:59:10.984Z,29.34
2023-08-20T14:01:37.451Z,29.20
2023-08-20T14:04:04.179Z,29.63
2023-08-20T14:06:30.719Z,29.58
2023-08-20T14:08:57.105Z,29.87
2023-08-20T14:11:23.520Z,29.73
2023-08-20T14:13:49.897Z,29.94
2023-08-20T14:16:16.326Z,30.09
2023-08-20T14:18:42.724Z,29.47
2023-08-20T14:21:09.102Z,29.49
2023-08-20T14:23:35.451Z,29.94
2023-08-20T14:26:02.141Z,30.11
2023-08-20T14:28:28.503Z,29.83
2023-08-20T14:30:54.893Z,29.65
2023-08-20T14:33:21.698Z,29.88
2023-08-20T14:35:48.199Z,30.76
2023-08-20T14:38:14.560Z,31.11
2023-08-20T14:40:41.415Z,30.97
2023-08-20T14:43:08.618Z,30.70
2023-08-20T14:45:35.207Z,30.18
2023-08-20T14:48:01.630Z,30.08
2023-08-20T14:50:28.028Z,30.08
2023-08-20T14:52:54.395Z,30.26
2023-08-20T14:55:21.049Z,29.64
2023-08-20T14:57:52.115Z,29.62
2023-08-20T15:00:19.682Z,29.36
2023-08-20T15:02:46.442Z,29.37
2023-08-20T15:05:13.489Z,29.69
2023-08-20T15:07:40.224Z,29.75
2023-08-20T15:10:07.369Z,29.52
2023-08-20T15:12:37.799Z,29.46
2023-08-20T15:15:05.207Z,29.47
2023-08-20T15:17:32.378Z,29.41
2023-08-20T15:19:59.485Z,29.25
2023-08-20T15:22:25.833Z,29.22
2023-08-20T15:24:52.208Z,29.09
2023-08-20T15:27:19.201Z,29.08
2023-08-20T15:29:45.964Z,28.92
2023-08-20T15:32:12.601Z,29.39
2023-08-20T15:34:39.027Z,29.56
2023-08-20T15:37:05.405Z,29.60
2023-08-20T15:39:34.884Z,29.38
2023-08-20T15:42:01.992Z,29.12
2023-08-20T15:44:28.359Z,29.32
2023-08-20T15:46:54.734Z,29.37
2023-08-20T15:49:21.084Z,29.02
2023-08-20T15:51:47.501Z,28.76
2023-08-20T15:54:13.895Z,28.82
2023-08-20T15:56:40.761Z,28.52
2023-08-20T15:59:07.241Z,28.82
2023-08-20T16:01:33.698Z,28.90
2023-08-20T16:04:00.327Z,28.82
2023-08-20T16:06:26.821Z,28.29
2023-08-20T16:08:54.289Z,28.36
2023-08-20T16:11:20.697Z,28.19
2023-08-20T16:13:47.088Z,28.13
2023-08-20T16:16:14.374Z,27.74
2023-08-20T16:18:40.854Z,27.60
2023-08-20T16:21:07.219Z,27.77
2023-08-20T16:23:33.584Z,27.85
2023-08-20T16:26:00.090Z,27.89
2023-08-20T16:28:26.466Z,28.00
2023-08-20T16:30:53.713Z,27.87
2023-08-20T16:33:20.391Z,27.81
2023-08-20T16:35:47.429Z,27.83
2023-08-20T16:38:13.835Z,27.81
2023-08-20T16:40:40.229Z,27.42
2023-08-20T16:43:06.875Z,27.39
2023-08-20T16:45:33.589Z,27.37
2023-08-20T16:48:00.028Z,27.35
2023-08-20T16:50:26.599Z,27.24
2023-08-20T16:52:53.213Z,26.51
2023-08-20T16:55:19.784Z,26.55
2023-08-20T16:57:46.168Z,26.55
2023-08-20T17:00:13.018Z,26.38
2023-08-20T17:02:39.587Z,25.97
2023-08-20T17:05:06.331Z,25.77
2023-08-20T17:07:32.871Z,25.81
2023-08-20T17:09:59.349Z,25.87
2023-08-20T17:12:26.208Z,25.80
2023-08-20T17:14:53.292Z,25.85
2023-08-20T17:17:22.219Z,25.80
2023-08-20T17:19:48.586Z,25.96
2023-08-20T17:22:14.948Z,26.19
2023-08-20T17:24:41.298Z,26.29
2023-08-20T17:27:07.707Z,25.95
2023-08-20T17:29:34.089Z,25.48
2023-08-20T17:32:00.490Z,25.15
2023-08-20T17:34:26.853Z,25.17
2023-08-20T17:36:53.208Z,25.02
2023-08-20T17:39:20.036Z,25.12
2023-08-20T17:41:46.771Z,25.11
2023-08-20T17:44:13.212Z,25.22
2023-08-20T17:46:46.857Z,25.16
2023-08-20T17:49:14.107Z,25.11
2023-08-20T17:51:41.105Z,25.00
2023-08-20T17:54:08.062Z,25.09
2023-08-20T17:56:35.254Z,25.10
2023-08-20T17:59:01.866Z,25.18
2023-08-20T18:01:28.311Z,25.15
2023-08-20T18:03:54.709Z,25.01
2023-08-20T18:06:21.163Z,24.72
2023-08-20T18:08:47.621Z,24.63
2023-08-20T18:11:13.995Z,24.52
2023-08-20T18:13:40.407Z,24.43
2023-08-20T18:16:07.101Z,24.39
2023-08-20T18:18:33.451Z,24.32
2023-08-20T18:20:59.952Z,24.12
2023-08-20T18:23:26.397Z,24.05
2023-08-20T18:25:53.196Z,24.10
2023-08-20T18:28:19.693Z,23.95
2023-08-20T18:30:53.341Z,23.93
2023-08-20T18:33:22.133Z,24.12
2023-08-20T18:35:49.233Z,24.17
2023-08-20T18:38:36.449Z,24.07
2023-08-20T18:41:04.324Z,24.12
2023-08-20T18:43:31.432Z,24.18
2023-08-20T18:45:57.897Z,24.13
2023-08-20T18:48:24.346Z,23.98
2023-08-20T18:50:50.753Z,23.84
2023-08-20T18:53:17.179Z,23.71
2023-08-20T18:55:43.615Z,23.57
2023-08-20T18:58:09.951Z,23.34
2023-08-20T19:00:36.417Z,23.22
2023-08-20T19:03:02.866Z,23.09
2023-08-20T19:05:30.567Z,22.90
2023-08-20T19:07:56.964Z,22.80
2023-08-20T19:10:23.856Z,22.91
2023-08-20T19:12:50.356Z,22.87
2023-08-20T19:15:16.734Z,22.73
2023-08-20T19:17:43.174Z,22.82
2023-08-20T19:20:09.799Z,22.80
2023-08-20T19:22:38.049Z,22.82
2023-08-20T19:25:05.154Z,22.81
2023-08-20T19:27:31.853Z,22.69
2023-08-20T19:29:58.363Z,22.66
2023-08-20T19:32:25.288Z,22.61
2023-08-20T19:34:52.501Z,22.62
2023-08-20T19:37:19.433Z,22.39
2023-08-20T19:39:46.776Z,22.31
2023-08-20T19:42:13.272Z,22.24
2023-08-20T19:44:40.799Z,22.11
2023-08-20T19:47:07.440Z,22.14
2023-08-20T19:49:33.881Z,22.14
2023-08-20T19:52:00.474Z,22.07
2023-08-20T19:54:26.822Z,22.03
2023-08-20T19:56:53.546Z,22.11
2023-08-20T19:59:19.936Z,22.15
2023-08-20T20:01:49.914Z,21.91
2023-08-20T20:04:16.584Z,21.88
2023-08-20T20:06:44.126Z,22.06
2023-08-20T20:09:10.850Z,21.91
2023-08-20T20:11:38.720Z,21.84
2023-08-20T20:14:05.837Z,21.85
2023-08-20T20:16:32.341Z,21.74
2023-08-20T20:18:58.939Z,21.75
2023-08-20T20:21:25.407Z,21.72
2023-08-20T20:23:51.800Z,21.48
2023-08-20T20:26:18.192Z,21.35
2023-08-20T20:28:44.988Z,21.31
2023-08-20T20:31:11.947Z,21.28
2023-08-20T20:33:38.499Z,21.14
2023-08-20T20:36:06.765Z,21.16
2023-08-20T20:38:34.959Z,21.09
2023-08-20T20:41:01.344Z,20.97
2023-08-20T20:43:27.738Z,20.99
2023-08-20T20:45:54.195Z,20.96
2023-08-20T20:48:20.618Z,20.90
2023-08-20T20:50:47.055Z,20.72
2023-08-20T20:53:14.412Z,20.67
2023-08-20T20:55:40.833Z,20.64
2023-08-20T20:58:07.816Z,20.66
2023-08-20T21:00:34.184Z,20.64
2023-08-20T21:03:00.832Z,20.47
2023-08-20T21:05:27.326Z,20.57
2023-08-20T21:07:53.733Z,20.48
2023-08-20T21:10:20.097Z,20.28
2023-08-20T21:12:46.473Z,20.13
2023-08-20T21:15:13.130Z,19.94
2023-08-20T21:17:39.586Z,19.82
2023-08-20T21:20:06.841Z,19.72
2023-08-20T21:22:33.249Z,19.71
2023-08-20T21:24:59.627Z,19.64
2023-08-20T21:27:26.332Z,19.66
2023-08-20T21:29:52.726Z,19.55
2023-08-20T21:32:19.102Z,19.45
2023-08-20T21:34:46.522Z,19.29
2023-08-20T21:37:12.885Z,19.20
2023-08-20T21:39:39.286Z,19.16
2023-08-20T21:42:05.797Z,19.01
2023-08-20T21:44:32.169Z,18.91
2023-08-20T21:47:01.323Z,18.79
2023-08-20T21:49:27.657Z,18.86
2023-08-20T21:51:54.200Z,18.78
2023-08-20T21:54:20.666Z,18.77
2023-08-20T21:56:51.144Z,18.77
2023-08-20T21:59:17.834Z,18.76
2023-08-20T22:01:44.237Z,18.62
2023-08-20T22:04:10.631Z,18.63
2023-08-20T22:06:37.049Z,18.55
2023-08-20T22:09:03.461Z,18.67
2023-08-20T22:11:29.861Z,18.56
2023-08-20T22:13:56.213Z,18.50
2023-08-20T22:16:22.619Z,18.11
2023-08-20T22:18:49.059Z,17.97
2023-08-20T22:21:15.422Z,17.93
2023-08-20T22:23:41.816Z,17.89
2023-08-20T22:26:08.179Z,17.87
2023-08-20T22:28:34.560Z,17.93
2023-08-20T22:31:02.188Z,18.08
2023-08-20T22:33:28.595Z,18.20
2023-08-20T22:35:54.947Z,18.23
2023-08-20T22:38:21.403Z,18.31
2023-08-20T22:40:47.890Z,18.24
2023-08-20T22:43:14.344Z,18.23
2023-08-20T22:45:40.791Z,18.15
2023-08-20T22:48:07.401Z,18.14
2023-08-20T22:50:33.836Z,18.03
2023-08-20T22:53:00.266Z,18.04
2023-08-20T22:55:29.577Z,18.01
2023-08-20T22:57:58.655Z,17.78
2023-08-20T23:00:25.314Z,17.50
2023-08-20T23:02:51.785Z,17.44
2023-08-20T23:05:18.155Z,17.49
2023-08-20T23:07:44.595Z,17.55
2023-08-20T23:10:11.192Z,17.49
2023-08-20T23:12:38.027Z,17.41
2023-08-20T23:15:05.806Z,17.56
2023-08-20T23:17:32.411Z,17.38
2023-08-20T23:19:58.917Z,17.51
2023-08-20T23:22:25.270Z,17.52
2023-08-20T23:24:51.765Z,17.45
2023-08-20T23:27:18.130Z,17.41
2023-08-20T23:29:44.607Z,17.45
2023-08-20T23:32:10.985Z,17.48
2023-08-20T23:34:37.443Z,17.45
2023-08-20T23:37:03.882Z,17.42
2023-08-20T23:39:30.237Z,17.43
2023-08-20T23:41:56.618Z,17.40
2023-08-20T23:44:23.128Z,17.42
2023-08-20T23:46:49.662Z,17.36
2023-08-20T23:49:18.000Z,17.30
2023-08-20T23:51:44.419Z,17.32
2023-08-20T23:54:10.777Z,17.29
2023-08-20T23:56:37.162Z,17.23
2023-08-20T23:59:03.719Z,17.16
